sensor_id;sensor_type;location;lat;lon;timestamp;pressure;altitude;pressure_sealevel;temperature;humidity
67697;BME280;54486;51.442;6.778;2022-12-24T00:01:04;100471.06;;;11.11;90.36
67697;BME280;54486;51.442;6.778;2022-12-24T00:03:32;100473.69;;;11.13;90.03
67697;BME280;54486;51.442;6.778;2022-12-24T00:06:06;100478.91;;;11.13;90.32
67697;BME280;54486;51.442;6.778;2022-12-24T00:08:34;100478.13;;;11.06;91.20
67697;BME280;54486;51.442;6.778;2022-12-24T00:11:03;100488.47;;;11.12;90.54
67697;BME280;54486;51.442;6.778;2022-12-24T00:13:30;100497.22;;;11.10;89.42
67697;BME280;54486;51.442;6.778;2022-12-24T00:15:58;100506.75;;;11.11;89.39
67697;BME280;54486;51.442;6.778;2022-12-24T00:18:26;100496.38;;;11.08;89.32
67697;BME280;54486;51.442;6.778;2022-12-24T00:20:54;100501.66;;;11.03;90.06
67697;BME280;54486;51.442;6.778;2022-12-24T00:23:21;100494.66;;;11.07;90.03
67697;BME280;54486;51.442;6.778;2022-12-24T00:25:49;100504.38;;;10.97;89.50
67697;BME280;54486;51.442;6.778;2022-12-24T00:28:16;100509.63;;;10.91;90.56
67697;BME280;54486;51.442;6.778;2022-12-24T00:30:45;100513.94;;;10.97;89.81
67697;BME280;54486;51.442;6.778;2022-12-24T00:33:13;100527.94;;;10.90;89.54
67697;BME280;54486;51.442;6.778;2022-12-24T00:35:49;100515.81;;;10.87;90.01
67697;BME280;54486;51.442;6.778;2022-12-24T00:38:17;100507.97;;;10.87;89.92
67697;BME280;54486;51.442;6.778;2022-12-24T00:40:46;100508.09;;;10.78;91.17
67697;BME280;54486;51.442;6.778;2022-12-24T00:43:15;100511.53;;;10.80;90.75
67697;BME280;54486;51.442;6.778;2022-12-24T00:45:42;100515.09;;;10.73;90.69
67697;BME280;54486;51.442;6.778;2022-12-24T00:48:09;100534.19;;;10.78;90.41
67697;BME280;54486;51.442;6.778;2022-12-24T00:50:36;100520.31;;;10.73;91.19
67697;BME280;54486;51.442;6.778;2022-12-24T00:53:04;100527.31;;;10.71;91.09
67697;BME280;54486;51.442;6.778;2022-12-24T00:55:31;100541.22;;;10.70;91.10
67697;BME280;54486;51.442;6.778;2022-12-24T00:57:59;100535.09;;;10.74;90.47
67697;BME280;54486;51.442;6.778;2022-12-24T01:00:27;100543.84;;;10.70;91.32
67697;BME280;54486;51.442;6.778;2022-12-24T01:02:54;100552.69;;;10.58;92.20
67697;BME280;54486;51.442;6.778;2022-12-24T01:05:21;100543.97;;;10.58;92.45
67697;BME280;54486;51.442;6.778;2022-12-24T01:07:49;100548.38;;;10.56;91.96
67697;BME280;54486;51.442;6.778;2022-12-24T01:10:18;100550.09;;;10.54;92.28
67697;BME280;54486;51.442;6.778;2022-12-24T01:12:46;100564.06;;;10.50;92.60
67697;BME280;54486;51.442;6.778;2022-12-24T01:15:13;100569.31;;;10.47;92.54
67697;BME280;54486;51.442;6.778;2022-12-24T01:17:40;100577.19;;;10.42;93.00
67697;BME280;54486;51.442;6.778;2022-12-24T01:20:12;100578.94;;;10.40;93.37
67697;BME280;54486;51.442;6.778;2022-12-24T01:22:40;100574.56;;;10.44;93.29
67697;BME280;54486;51.442;6.778;2022-12-24T01:25:08;100572.91;;;10.37;94.06
67697;BME280;54486;51.442;6.778;2022-12-24T01:27:36;100585.94;;;10.35;93.52
67697;BME280;54486;51.442;6.778;2022-12-24T01:30:07;100588.59;;;10.32;94.33
67697;BME280;54486;51.442;6.778;2022-12-24T01:32:35;100588.59;;;10.31;94.02
67697;BME280;54486;51.442;6.778;2022-12-24T01:35:03;100599.97;;;10.24;94.80
67697;BME280;54486;51.442;6.778;2022-12-24T01:37:30;100599.06;;;10.25;94.90
67697;BME280;54486;51.442;6.778;2022-12-24T01:39:57;100590.38;;;10.27;94.87
67697;BME280;54486;51.442;6.778;2022-12-24T01:42:46;100585.22;;;10.20;95.35
67697;BME280;54486;51.442;6.778;2022-12-24T01:45:53;100602.59;;;10.24;94.77
67697;BME280;54486;51.442;6.778;2022-12-24T01:51:00;100601.78;;;10.16;95.25
67697;BME280;54486;51.442;6.778;2022-12-24T01:53:28;100602.56;;;10.27;94.44
67697;BME280;54486;51.442;6.778;2022-12-24T01:55:56;100608.66;;;10.23;94.96
67697;BME280;54486;51.442;6.778;2022-12-24T01:58:25;100619.13;;;10.18;94.67
67697;BME280;54486;51.442;6.778;2022-12-24T02:00:53;100626.97;;;10.15;95.40
67697;BME280;54486;51.442;6.778;2022-12-24T02:03:20;100611.38;;;10.14;95.57
67697;BME280;54486;51.442;6.778;2022-12-24T02:05:51;100626.13;;;10.15;95.22
67697;BME280;54486;51.442;6.778;2022-12-24T02:08:21;100637.44;;;10.10;96.08
67697;BME280;54486;51.442;6.778;2022-12-24T02:10:49;100639.16;;;10.08;96.20
67697;BME280;54486;51.442;6.778;2022-12-24T02:13:19;100650.44;;;10.12;96.25
67697;BME280;54486;51.442;6.778;2022-12-24T02:18:48;100663.47;;;10.17;96.98
67697;BME280;54486;51.442;6.778;2022-12-24T02:27:10;100664.34;;;10.09;97.27
67697;BME280;54486;51.442;6.778;2022-12-24T02:32:46;100681.75;;;10.10;97.13
67697;BME280;54486;51.442;6.778;2022-12-24T02:35:20;100673.91;;;10.17;96.37
67697;BME280;54486;51.442;6.778;2022-12-24T02:38:02;100679.16;;;10.14;96.45
67697;BME280;54486;51.442;6.778;2022-12-24T02:40:36;100683.47;;;10.16;97.04
67697;BME280;54486;51.442;6.778;2022-12-24T02:43:19;100691.28;;;10.13;96.74
67697;BME280;54486;51.442;6.778;2022-12-24T02:45:52;100687.81;;;10.16;96.96
67697;BME280;54486;51.442;6.778;2022-12-24T02:48:27;100682.59;;;10.16;97.22
67697;BME280;54486;51.442;6.778;2022-12-24T02:51:01;100696.50;;;10.08;97.66
67697;BME280;54486;51.442;6.778;2022-12-24T02:53:30;100694.84;;;10.01;97.32
67697;BME280;54486;51.442;6.778;2022-12-24T03:12:20;100697.63;;;9.65;99.88
67697;BME280;54486;51.442;6.778;2022-12-24T03:14:49;100696.81;;;9.63;99.98
67697;BME280;54486;51.442;6.778;2022-12-24T03:17:17;100697.66;;;9.62;100.00
67697;BME280;54486;51.442;6.778;2022-12-24T03:19:46;100698.50;;;9.67;100.00
67697;BME280;54486;51.442;6.778;2022-12-24T03:22:14;100695.91;;;9.69;100.00
67697;BME280;54486;51.442;6.778;2022-12-24T03:24:42;100696.78;;;9.66;99.92
67697;BME280;54486;51.442;6.778;2022-12-24T03:27:11;100699.34;;;9.71;99.57
67697;BME280;54486;51.442;6.778;2022-12-24T03:29:40;100705.44;;;9.71;99.89
67697;BME280;54486;51.442;6.778;2022-12-24T03:32:07;100708.91;;;9.70;100.00
67697;BME280;54486;51.442;6.778;2022-12-24T03:34:35;100711.50;;;9.72;100.00
67697;BME280;54486;51.442;6.778;2022-12-24T03:37:02;100705.38;;;9.80;100.00
67697;BME280;54486;51.442;6.778;2022-12-24T03:39:29;100716.63;;;9.87;99.28
67697;BME280;54486;51.442;6.778;2022-12-24T03:41:56;100715.78;;;9.83;99.40
67697;BME280;54486;51.442;6.778;2022-12-24T03:44:23;100715.78;;;9.83;99.67
67697;BME280;54486;51.442;6.778;2022-12-24T03:46:51;100712.31;;;9.84;99.94
67697;BME280;54486;51.442;6.778;2022-12-24T03:49:18;100717.53;;;9.84;100.00
67697;BME280;54486;51.442;6.778;2022-12-24T03:51:45;100714.88;;;9.92;99.88
67697;BME280;54486;51.442;6.778;2022-12-24T03:54:13;100717.44;;;9.96;100.00
67697;BME280;54486;51.442;6.778;2022-12-24T03:56:40;100722.69;;;9.90;100.00
67697;BME280;54486;51.442;6.778;2022-12-24T03:59:07;100708.78;;;9.94;100.00
67697;BME280;54486;51.442;6.778;2022-12-24T04:01:35;100719.22;;;9.94;100.00
67697;BME280;54486;51.442;6.778;2022-12-24T04:04:02;100707.94;;;9.91;100.00
67697;BME280;54486;51.442;6.778;2022-12-24T04:06:29;100712.28;;;9.87;100.00
67697;BME280;54486;51.442;6.778;2022-12-24T04:08:56;100715.75;;;9.89;100.00
67697;BME280;54486;51.442;6.778;2022-12-24T04:11:25;100720.06;;;9.95;100.00
67697;BME280;54486;51.442;6.778;2022-12-24T04:13:52;100720.91;;;10.01;100.00
67697;BME280;54486;51.442;6.778;2022-12-24T04:16:20;100725.22;;;10.04;100.00
67697;BME280;54486;51.442;6.778;2022-12-24T04:18:47;100731.31;;;10.04;100.00
67697;BME280;54486;51.442;6.778;2022-12-24T04:21:14;100739.97;;;10.09;100.00
67697;BME280;54486;51.442;6.778;2022-12-24T04:23:42;100737.38;;;10.14;100.00
67697;BME280;54486;51.442;6.778;2022-12-24T04:26:11;100741.69;;;10.20;100.00
67697;BME280;54486;51.442;6.778;2022-12-24T04:28:40;100735.59;;;10.21;100.00
67697;BME280;54486;51.442;6.778;2022-12-24T04:31:11;100733.84;;;10.24;100.00
67697;BME280;54486;51.442;6.778;2022-12-24T04:33:39;100738.13;;;10.33;100.00
67697;BME280;54486;51.442;6.778;2022-12-24T04:36:09;100742.41;;;10.38;100.00
67697;BME280;54486;51.442;6.778;2022-12-24T04:38:37;100750.25;;;10.35;99.89
67697;BME280;54486;51.442;6.778;2022-12-24T04:41:07;100755.47;;;10.37;99.89
67697;BME280;54486;51.442;6.778;2022-12-24T04:43:35;100753.75;;;10.33;100.00
67697;BME280;54486;51.442;6.778;2022-12-24T04:46:09;100752.00;;;10.35;99.96
67697;BME280;54486;51.442;6.778;2022-12-24T04:48:37;100748.50;;;10.39;100.00
67697;BME280;54486;51.442;6.778;2022-12-24T04:51:05;100761.53;;;10.39;99.79
67697;BME280;54486;51.442;6.778;2022-12-24T04:53:34;100759.72;;;10.50;99.70
67697;BME280;54486;51.442;6.778;2022-12-24T04:56:03;100759.81;;;10.39;100.00
67697;BME280;54486;51.442;6.778;2022-12-24T04:58:33;100771.09;;;10.40;99.91
67697;BME280;54486;51.442;6.778;2022-12-24T05:01:11;100775.44;;;10.41;99.63
67697;BME280;54486;51.442;6.778;2022-12-24T05:03:38;100764.13;;;10.42;99.70
67697;BME280;54486;51.442;6.778;2022-12-24T05:06:09;100775.44;;;10.38;100.00
67697;BME280;54486;51.442;6.778;2022-12-24T05:08:37;100764.16;;;10.39;100.00
67697;BME280;54486;51.442;6.778;2022-12-24T05:11:06;100774.59;;;10.39;100.00
67697;BME280;54486;51.442;6.778;2022-12-24T05:13:34;100776.31;;;10.43;100.00
67697;BME280;54486;51.442;6.778;2022-12-24T05:16:14;100771.94;;;10.40;100.00
67697;BME280;54486;51.442;6.778;2022-12-24T05:18:43;100783.31;;;10.32;100.00
67697;BME280;54486;51.442;6.778;2022-12-24T05:21:14;100768.53;;;10.34;100.00
67697;BME280;54486;51.442;6.778;2022-12-24T05:23:42;100778.06;;;10.38;100.00
67697;BME280;54486;51.442;6.778;2022-12-24T05:26:35;100776.38;;;10.34;100.00
67697;BME280;54486;51.442;6.778;2022-12-24T05:29:04;100777.22;;;10.34;100.00
67697;BME280;54486;51.442;6.778;2022-12-24T05:31:32;100771.97;;;10.37;100.00
67697;BME280;54486;51.442;6.778;2022-12-24T05:34:00;100792.03;;;10.34;100.00
67697;BME280;54486;51.442;6.778;2022-12-24T05:36:28;100790.25;;;10.36;100.00
67697;BME280;54486;51.442;6.778;2022-12-24T05:38:55;100787.59;;;10.40;100.00
67697;BME280;54486;51.442;6.778;2022-12-24T05:41:22;100800.63;;;10.40;100.00
67697;BME280;54486;51.442;6.778;2022-12-24T05:43:49;100788.47;;;10.41;100.00
67697;BME280;54486;51.442;6.778;2022-12-24T05:46:18;100792.84;;;10.37;100.00
67697;BME280;54486;51.442;6.778;2022-12-24T05:48:47;100783.28;;;10.38;100.00
67697;BME280;54486;51.442;6.778;2022-12-24T05:51:16;100785.00;;;10.39;100.00
67697;BME280;54486;51.442;6.778;2022-12-24T05:53:49;100787.63;;;10.37;100.00
67697;BME280;54486;51.442;6.778;2022-12-24T05:56:22;100795.44;;;10.39;100.00
67697;BME280;54486;51.442;6.778;2022-12-24T05:58:50;100792.88;;;10.36;100.00
67697;BME280;54486;51.442;6.778;2022-12-24T06:01:19;100804.13;;;10.38;100.00
67697;BME280;54486;51.442;6.778;2022-12-24T06:03:46;100809.41;;;10.32;100.00
67697;BME280;54486;51.442;6.778;2022-12-24T06:06:17;100795.44;;;10.39;100.00
67697;BME280;54486;51.442;6.778;2022-12-24T06:08:46;100818.09;;;10.37;100.00
67697;BME280;54486;51.442;6.778;2022-12-24T06:11:16;100798.91;;;10.38;100.00
67697;BME280;54486;51.442;6.778;2022-12-24T06:13:43;100809.34;;;10.41;100.00
67697;BME280;54486;51.442;6.778;2022-12-24T06:16:15;100814.56;;;10.41;100.00
67697;BME280;54486;51.442;6.778;2022-12-24T06:18:44;100831.06;;;10.44;100.00
67697;BME280;54486;51.442;6.778;2022-12-24T06:21:13;100826.72;;;10.42;100.00
67697;BME280;54486;51.442;6.778;2022-12-24T06:23:42;100833.69;;;10.43;100.00
67697;BME280;54486;51.442;6.778;2022-12-24T06:26:14;100831.06;;;10.46;100.00
67697;BME280;54486;51.442;6.778;2022-12-24T06:28:42;100842.31;;;10.51;99.54
67697;BME280;54486;51.442;6.778;2022-12-24T06:31:12;100831.91;;;10.48;99.52
67697;BME280;54486;51.442;6.778;2022-12-24T06:33:40;100838.88;;;10.46;99.35
67697;BME280;54486;51.442;6.778;2022-12-24T06:36:10;100837.16;;;10.40;99.30
67697;BME280;54486;51.442;6.778;2022-12-24T06:38:45;100835.41;;;10.41;99.59
67697;BME280;54486;51.442;6.778;2022-12-24T06:41:13;100844.16;;;10.40;99.92
67697;BME280;54486;51.442;6.778;2022-12-24T06:43:45;100845.88;;;10.35;100.00
67697;BME280;54486;51.442;6.778;2022-12-24T06:46:13;100841.53;;;10.35;99.76
67697;BME280;54486;51.442;6.778;2022-12-24T06:48:44;100845.03;;;10.33;99.99
67697;BME280;54486;51.442;6.778;2022-12-24T06:51:13;100858.13;;;10.27;100.00
67697;BME280;54486;51.442;6.778;2022-12-24T06:53:40;100850.28;;;10.30;100.00
67697;BME280;54486;51.442;6.778;2022-12-24T06:56:10;100859.81;;;10.31;100.00
67697;BME280;54486;51.442;6.778;2022-12-24T06:58:38;100861.56;;;10.32;100.00
67697;BME280;54486;51.442;6.778;2022-12-24T07:01:07;100869.41;;;10.30;100.00
67697;BME280;54486;51.442;6.778;2022-12-24T07:03:35;100870.25;;;10.34;99.87
67697;BME280;54486;51.442;6.778;2022-12-24T07:06:02;100878.94;;;10.36;99.88
67697;BME280;54486;51.442;6.778;2022-12-24T07:08:30;100875.47;;;10.37;99.19
67697;BME280;54486;51.442;6.778;2022-12-24T07:10:59;100869.38;;;10.33;99.50
67697;BME280;54486;51.442;6.778;2022-12-24T07:13:26;100868.50;;;10.36;99.59
67697;BME280;54486;51.442;6.778;2022-12-24T07:16:01;100880.69;;;10.34;99.36
67697;BME280;54486;51.442;6.778;2022-12-24T07:18:29;100871.97;;;10.35;99.16
67697;BME280;54486;51.442;6.778;2022-12-24T07:20:59;100877.25;;;10.26;99.62
67697;BME280;54486;51.442;6.778;2022-12-24T07:23:26;100897.25;;;10.24;99.88
67697;BME280;54486;51.442;6.778;2022-12-24T07:25:53;100893.75;;;10.25;99.93
67697;BME280;54486;51.442;6.778;2022-12-24T07:28:20;100898.97;;;10.26;99.60
67697;BME280;54486;51.442;6.778;2022-12-24T07:30:55;100892.91;;;10.20;99.67
67697;BME280;54486;51.442;6.778;2022-12-24T07:33:23;100899.91;;;10.15;99.89
67697;BME280;54486;51.442;6.778;2022-12-24T07:36:01;100892.94;;;10.14;100.00
67697;BME280;54486;51.442;6.778;2022-12-24T07:38:30;100901.59;;;10.09;100.00
67697;BME280;54486;51.442;6.778;2022-12-24T07:40:57;100908.59;;;10.14;99.85
67697;BME280;54486;51.442;6.778;2022-12-24T07:43:25;100899.00;;;10.09;100.00
67697;BME280;54486;51.442;6.778;2022-12-24T07:45:54;100914.63;;;10.09;99.97
67697;BME280;54486;51.442;6.778;2022-12-24T07:48:27;100915.50;;;10.11;100.00
67697;BME280;54486;51.442;6.778;2022-12-24T07:50:56;100923.31;;;10.11;99.91
67697;BME280;54486;51.442;6.778;2022-12-24T07:53:25;100927.69;;;10.09;100.00
67697;BME280;54486;51.442;6.778;2022-12-24T07:55:53;100929.44;;;10.07;100.00
67697;BME280;54486;51.442;6.778;2022-12-24T07:58:21;100935.50;;;10.08;100.00
67697;BME280;54486;51.442;6.778;2022-12-24T08:00:57;100943.31;;;10.06;100.00
67697;BME280;54486;51.442;6.778;2022-12-24T08:03:25;100952.00;;;10.13;100.00
67697;BME280;54486;51.442;6.778;2022-12-24T08:05:53;100961.56;;;10.11;100.00
67697;BME280;54486;51.442;6.778;2022-12-24T08:08:20;100958.94;;;10.22;99.61
67697;BME280;54486;51.442;6.778;2022-12-24T08:10:48;100965.06;;;10.19;99.34
67697;BME280;54486;51.442;6.778;2022-12-24T08:13:16;100952.88;;;10.15;99.68
67697;BME280;54486;51.442;6.778;2022-12-24T08:15:43;100973.75;;;10.27;99.37
67697;BME280;54486;51.442;6.778;2022-12-24T08:18:10;100972.88;;;10.21;99.21
67697;BME280;54486;51.442;6.778;2022-12-24T08:20:38;100979.81;;;10.25;98.83
67697;BME280;54486;51.442;6.778;2022-12-24T08:23:07;100982.44;;;10.20;98.88
67697;BME280;54486;51.442;6.778;2022-12-24T08:25:34;100986.78;;;10.23;98.98
67697;BME280;54486;51.442;6.778;2022-12-24T08:28:04;100993.75;;;10.24;98.90
67697;BME280;54486;51.442;6.778;2022-12-24T08:30:32;100985.88;;;10.28;98.27
67697;BME280;54486;51.442;6.778;2022-12-24T08:33:00;100993.72;;;10.30;98.91
67697;BME280;54486;51.442;6.778;2022-12-24T08:35:27;101005.88;;;10.31;98.27
67697;BME280;54486;51.442;6.778;2022-12-24T08:37:54;101003.28;;;10.34;98.40
67697;BME280;54486;51.442;6.778;2022-12-24T08:40:21;101004.16;;;10.30;98.15
67697;BME280;54486;51.442;6.778;2022-12-24T08:42:49;101010.25;;;10.24;98.66
67697;BME280;54486;51.442;6.778;2022-12-24T08:45:17;101006.78;;;10.21;98.86
67697;BME280;54486;51.442;6.778;2022-12-24T08:47:45;101011.09;;;10.22;98.80
67697;BME280;54486;51.442;6.778;2022-12-24T08:50:12;101019.84;;;10.18;98.89
67697;BME280;54486;51.442;6.778;2022-12-24T08:52:39;101016.34;;;10.19;98.86
67697;BME280;54486;51.442;6.778;2022-12-24T08:55:07;101018.06;;;10.23;98.43
67697;BME280;54486;51.442;6.778;2022-12-24T08:57:35;101019.84;;;10.18;98.84
67697;BME280;54486;51.442;6.778;2022-12-24T09:00:05;101030.25;;;10.24;98.54
67697;BME280;54486;51.442;6.778;2022-12-24T09:02:33;101019.78;;;10.25;98.66
67697;BME280;54486;51.442;6.778;2022-12-24T09:05:01;101022.41;;;10.30;98.32
67697;BME280;54486;51.442;6.778;2022-12-24T09:07:29;101037.16;;;10.28;98.68
67697;BME280;54486;51.442;6.778;2022-12-24T09:09:56;101021.50;;;10.31;98.61
67697;BME280;54486;51.442;6.778;2022-12-24T09:12:23;101030.19;;;10.42;98.66
67697;BME280;54486;51.442;6.778;2022-12-24T09:14:50;101033.66;;;10.44;98.56
67697;BME280;54486;51.442;6.778;2022-12-24T09:17:18;101041.44;;;10.57;97.10
67697;BME280;54486;51.442;6.778;2022-12-24T09:19:45;101040.56;;;10.60;97.26
67697;BME280;54486;51.442;6.778;2022-12-24T09:22:40;101043.16;;;10.63;96.88
67697;BME280;54486;51.442;6.778;2022-12-24T09:25:40;101048.38;;;10.68;96.67
67697;BME280;54486;51.442;6.778;2022-12-24T09:28:34;101049.25;;;10.71;96.47
67697;BME280;54486;51.442;6.778;2022-12-24T09:31:29;101060.53;;;10.78;96.03
67697;BME280;54486;51.442;6.778;2022-12-24T09:33:56;101066.59;;;10.84;95.69
67697;BME280;54486;51.442;6.778;2022-12-24T09:36:23;101070.03;;;10.92;95.45
67697;BME280;54486;51.442;6.778;2022-12-24T09:38:51;101077.00;;;10.93;95.19
67697;BME280;54486;51.442;6.778;2022-12-24T09:44:10;101086.53;;;10.99;94.81
67697;BME280;54486;51.442;6.778;2022-12-24T09:46:44;101090.88;;;11.01;94.32
67697;BME280;54486;51.442;6.778;2022-12-24T09:49:16;101091.75;;;11.02;94.72
67697;BME280;54486;51.442;6.778;2022-12-24T09:51:51;101104.81;;;11.03;94.21
67697;BME280;54486;51.442;6.778;2022-12-24T09:54:26;101106.53;;;11.13;93.84
67697;BME280;54486;51.442;6.778;2022-12-24T09:56:59;101111.72;;;11.17;93.18
67697;BME280;54486;51.442;6.778;2022-12-24T09:59:40;101110.84;;;11.14;93.59
67697;BME280;54486;51.442;6.778;2022-12-24T10:02:12;101113.44;;;11.22;92.64
67697;BME280;54486;51.442;6.778;2022-12-24T10:04:40;101112.56;;;11.20;92.65
67697;BME280;54486;51.442;6.778;2022-12-24T10:23:38;101123.88;;;11.21;93.47
67697;BME280;54486;51.442;6.778;2022-12-24T10:26:11;101130.84;;;11.22;93.38
67697;BME280;54486;51.442;6.778;2022-12-24T10:28:46;101124.78;;;11.17;93.69
67697;BME280;54486;51.442;6.778;2022-12-24T10:31:18;101139.56;;;11.18;93.71
67697;BME280;54486;51.442;6.778;2022-12-24T10:33:51;101118.66;;;11.21;93.76
67697;BME280;54486;51.442;6.778;2022-12-24T10:36:26;101121.25;;;11.24;93.06
67697;BME280;54486;51.442;6.778;2022-12-24T10:38:53;101122.13;;;11.26;93.00
67697;BME280;54486;51.442;6.778;2022-12-24T10:41:22;101121.22;;;11.27;94.01
67697;BME280;54486;51.442;6.778;2022-12-24T10:43:52;101122.09;;;11.35;93.24
67697;BME280;54486;51.442;6.778;2022-12-24T10:46:22;101116.00;;;11.31;92.64
67697;BME280;54486;51.442;6.778;2022-12-24T10:48:59;101116.91;;;11.26;92.75
67697;BME280;54486;51.442;6.778;2022-12-24T10:51:52;101113.38;;;11.33;92.98
67697;BME280;54486;51.442;6.778;2022-12-24T10:54:23;101113.34;;;11.40;92.84
67697;BME280;54486;51.442;6.778;2022-12-24T10:56:59;101117.63;;;11.49;92.64
67697;BME280;54486;51.442;6.778;2022-12-24T10:59:41;101103.69;;;11.53;91.84
67697;BME280;54486;51.442;6.778;2022-12-24T11:02:33;101125.50;;;11.43;91.70
67697;BME280;54486;51.442;6.778;2022-12-24T11:05:02;101123.78;;;11.42;91.53
67697;BME280;54486;51.442;6.778;2022-12-24T11:07:30;101122.88;;;11.43;92.76
67697;BME280;54486;51.442;6.778;2022-12-24T11:10:04;101131.63;;;11.42;91.61
67697;BME280;54486;51.442;6.778;2022-12-24T11:12:36;101132.50;;;11.38;91.84
67697;BME280;54486;51.442;6.778;2022-12-24T11:15:15;101116.81;;;11.44;91.63
67697;BME280;54486;51.442;6.778;2022-12-24T11:17:56;101111.53;;;11.50;90.85
67697;BME280;54486;51.442;6.778;2022-12-24T11:20:27;101115.03;;;11.49;91.25
67697;BME280;54486;51.442;6.778;2022-12-24T11:22:55;101109.78;;;11.55;92.03
67697;BME280;54486;51.442;6.778;2022-12-24T11:25:25;101118.47;;;11.57;91.16
67697;BME280;54486;51.442;6.778;2022-12-24T11:28:15;101105.44;;;11.54;91.21
67697;BME280;54486;51.442;6.778;2022-12-24T11:31:07;101115.00;;;11.52;90.58
67697;BME280;54486;51.442;6.778;2022-12-24T11:33:50;101116.78;;;11.47;91.13
67697;BME280;54486;51.442;6.778;2022-12-24T11:36:21;101115.00;;;11.52;90.94
67697;BME280;54486;51.442;6.778;2022-12-24T11:38:55;101115.03;;;11.46;91.34
67697;BME280;54486;51.442;6.778;2022-12-24T11:41:24;101122.88;;;11.43;90.93
67697;BME280;54486;51.442;6.778;2022-12-24T11:44:00;101122.03;;;11.41;91.43
67697;BME280;54486;51.442;6.778;2022-12-24T11:46:41;101117.63;;;11.52;90.49
67697;BME280;54486;51.442;6.778;2022-12-24T11:51:57;101132.44;;;11.54;89.57
67697;BME280;54486;51.442;6.778;2022-12-24T11:54:30;101128.88;;;11.63;89.78
67697;BME280;54486;51.442;6.778;2022-12-24T11:57:02;101134.06;;;11.69;88.81
67697;BME280;54486;51.442;6.778;2022-12-24T11:59:33;101130.66;;;11.58;88.52
67697;BME280;54486;51.442;6.778;2022-12-24T12:02:18;101133.28;;;11.61;88.99
67697;BME280;54486;51.442;6.778;2022-12-24T12:04:54;101125.44;;;11.61;88.58
67697;BME280;54486;51.442;6.778;2022-12-24T12:07:29;101132.34;;;11.65;87.85
67697;BME280;54486;51.442;6.778;2022-12-24T12:10:05;101150.72;;;11.57;87.04
67697;BME280;54486;51.442;6.778;2022-12-24T12:12:42;101142.00;;;11.54;87.87
67697;BME280;54486;51.442;6.778;2022-12-24T12:15:14;101149.84;;;11.54;88.75
67697;BME280;54486;51.442;6.778;2022-12-24T12:17:48;101142.03;;;11.49;88.20
67697;BME280;54486;51.442;6.778;2022-12-24T12:23:01;101141.09;;;11.61;87.47
67697;BME280;54486;51.442;6.778;2022-12-24T12:25:52;101150.66;;;11.62;87.62
67697;BME280;54486;51.442;6.778;2022-12-24T12:28:46;101139.34;;;11.63;87.13
67697;BME280;54486;51.442;6.778;2022-12-24T12:33:47;101148.03;;;11.71;86.49
67697;BME280;54486;51.442;6.778;2022-12-24T12:36:19;101142.75;;;11.80;86.01
67697;BME280;54486;51.442;6.778;2022-12-24T12:38:48;101144.56;;;11.66;86.42
67697;BME280;54486;51.442;6.778;2022-12-24T12:41:23;101155.88;;;11.65;87.71
67697;BME280;54486;51.442;6.778;2022-12-24T12:44:15;101158.47;;;11.65;87.29
67697;BME280;54486;51.442;6.778;2022-12-24T12:57:59;101173.22;;;11.84;86.82
67697;BME280;54486;51.442;6.778;2022-12-24T13:00:32;101174.09;;;11.86;85.92
67697;BME280;54486;51.442;6.778;2022-12-24T13:06:00;101173.19;;;11.93;82.81
67697;BME280;54486;51.442;6.778;2022-12-24T13:11:37;101179.19;;;12.07;82.93
67697;BME280;54486;51.442;6.778;2022-12-24T13:17:12;101177.31;;;12.25;80.57
67697;BME280;54486;51.442;6.778;2022-12-24T13:22:21;101190.41;;;12.20;81.10
67697;BME280;54486;51.442;6.778;2022-12-24T13:24:51;101183.50;;;12.10;81.10
67697;BME280;54486;51.442;6.778;2022-12-24T13:27:26;101183.59;;;11.98;82.55
67697;BME280;54486;51.442;6.778;2022-12-24T13:30:03;101197.56;;;11.95;83.16
67697;BME280;54486;51.442;6.778;2022-12-24T13:32:50;101196.72;;;11.87;81.93
67697;BME280;54486;51.442;6.778;2022-12-24T13:37:44;101195.81;;;11.97;82.41
67697;BME280;54486;51.442;6.778;2022-12-24T13:50:48;101195.03;;;11.86;80.88
67697;BME280;54486;51.442;6.778;2022-12-24T13:54:09;101197.63;;;11.89;81.23
67697;BME280;54486;51.442;6.778;2022-12-24T13:58:48;101195.81;;;11.97;80.89
67697;BME280;54486;51.442;6.778;2022-12-24T14:01:21;101194.13;;;11.89;80.81
67697;BME280;54486;51.442;6.778;2022-12-24T14:03:55;101191.47;;;11.96;81.13
67697;BME280;54486;51.442;6.778;2022-12-24T14:06:24;101201.97;;;11.87;80.68
67697;BME280;54486;51.442;6.778;2022-12-24T14:09:03;101212.47;;;11.78;81.51
67697;BME280;54486;51.442;6.778;2022-12-24T14:17:01;101217.72;;;11.69;82.49
67697;BME280;54486;51.442;6.778;2022-12-24T14:19:40;101219.47;;;11.79;81.77
67697;BME280;54486;51.442;6.778;2022-12-24T14:25:20;101228.16;;;11.81;82.20
67697;BME280;54486;51.442;6.778;2022-12-24T14:27:57;101220.28;;;11.89;81.17
67697;BME280;54486;51.442;6.778;2022-12-24T14:30:28;101225.47;;;11.95;81.29
67697;BME280;54486;51.442;6.778;2022-12-24T14:32:56;101229.81;;;11.94;80.17
67697;BME280;54486;51.442;6.778;2022-12-24T14:35:26;101249.91;;;11.88;79.72
67697;BME280;54486;51.442;6.778;2022-12-24T14:38:00;101246.44;;;11.86;80.28
67697;BME280;54486;51.442;6.778;2022-12-24T14:40:36;101247.34;;;11.80;80.13
67697;BME280;54486;51.442;6.778;2022-12-24T14:43:28;101249.13;;;11.72;80.07
67697;BME280;54486;51.442;6.778;2022-12-24T14:46:36;101249.13;;;11.63;81.21
67697;BME280;54486;51.442;6.778;2022-12-24T14:49:26;101251.72;;;11.67;79.94
67697;BME280;54486;51.442;6.778;2022-12-24T14:52:05;101245.66;;;11.61;81.06
67697;BME280;54486;51.442;6.778;2022-12-24T14:54:56;101257.84;;;11.56;80.90